Yuma, AZ

11:07 PM MST on Αύγουστος 30, 2016 (GMT -0700)
Yuma Marine Corps Air Station | | Change Station

Elev 213 ft 32.66 °N, 114.61 °W | Updated 10 minutes ago

Partly Cloudy
Λίγο Νεφελώδης
94 ° F
Feels Like 92 ° F
N
4
Ανεμος Μεταβλητός Ανεμος from ΝΝΔ

Σήμερα
High -- | Low -- ° F
--% Chance of Precip.
Yesterday
High -- | Low -- ° F
Precip. -- in
Ατμοσφαιρική Πίεση 29.70 in
Ορατότητα 10.0 Μίλια
Σύννεφα Few 10000 ft
Δείκτης Δυσφορίας 92 ° F
Σημείο Δρόσου 55 ° F
Υγρασία 27%
Rainfall 0.00 in
Snow Depth Not available.
6:12 AM 7:04 PM
Μηνίσκος, 1% visible
METAR KNYL 310557Z 21003KT 10SM FEW100 34/13 A2971 RMK AO2 SLP056 LAST RCRNR T03440128 10439 20344 51013
Ατμοσφαιρική Πίεση 29.70 in
Ορατότητα 10.0 Μίλια
Σύννεφα Few 10000 ft
Δείκτης Δυσφορίας 92 ° F
Σημείο Δρόσου 55 ° F
Υγρασία 27%
Rainfall 0.00 in
Snow Depth Not available.
6:12 AM 7:04 PM
Μηνίσκος, 1% visible
METAR KNYL 310557Z 21003KT 10SM FEW100 34/13 A2971 RMK AO2 SLP056 LAST RCRNR T03440128 10439 20344 51013

10-Day Weather Forecast

Almanac

Αστρονομία

Aug. 30, 2016 Rise Set
Actual Time
Civil Twilight
Nautical Twilight
Astronomical Twilight
Moon
Length Of Visible Light
Διάρκεια ημέρας
Tomorrow will be .
, % of the Moon is Illuminated

Today's Extremes

State Highs State Lows

Community

WunderPhotos

Upload Photos

1,936,040 photos uploaded!

WunderBlog® & News

Nearby

Air Quality

  Air Quality AQ Index Pollutant
Not available.

Snow Depth

Station Depth Elevation

Earthquake Activity

City Distance Mag. Time & Date
Minimum magnitude displayed is 2.5.

Coastal Water Temperatures

Τοποθεσία Θερμοκρασία

Stations

Nearby Weather Stations

Station Location Temp Δείκτης Ψυχρότητας Σημείο Δρόσου Υγρασία Ανεμος Precip. Elev Ενημερώθηκε Type
                   

Watches & Warnings

There are currently no watches in effect.